Ocean King — CZ2591 — position and weather

sailwx.info

Track history (hours):
 
Tides and Currents Weather Stations Pressure Air Temp Water Temp Dewpoint Dewpoint Depression Visibility Wind Speed Wind Dir Waves Ship Positions

Ocean King

Last reported at 2016-Aug-09 05:33 UTC. Time now 2016-Aug-26 01:30 UTC.
Position N 48°50' W 125°30'.
Warning: this ship's position is 16 days out of date.

Length 29 m; draft 4 m.

Type: Fishing. MMSI: 316003514.

Date/timePositionNaut miles runAvg speedWind from/ knotsBaromVisibWave heightAir tempDewpointWater temp
2016-Aug-09 05:33N 48°50' W 125°30'5 4.8
2016-Aug-09 04:33N 48°45' W 125°30'8 7.6
2016-Aug-09 03:34N 48°38' W 125°29'8 7.2
2016-Aug-09 02:23N 48°29' W 125°28'5 4.6
2016-Aug-09 01:20N 48°25' W 125°31'8 9.2
2016-Aug-09 00:25N 48°21' W 125°43'7 6.7
2016-Aug-08 23:19N 48°14' W 125°46'1 1.2
2016-Aug-08 22:31N 48°15' W 125°46'0 0.2
2016-Aug-08 20:33N 48°15' W 125°46'2 1.9
2016-Aug-08 19:30N 48°17' W 125°44'4 4.6
2016-Aug-08 18:32N 48°17' W 125°50'7 7.5
2016-Aug-08 17:33N 48°24' W 125°54'7 6.9
2016-Aug-08 16:33N 48°25' W 126°04'8 7.5
2016-Aug-08 15:33N 48°32' W 126°10'7 7.5
2016-Aug-08 14:33N 48°39' W 126°14'7 7.3
2016-Aug-08 13:34N 48°46' W 126°15'1 1.4
2016-Aug-08 12:34N 48°46' W 126°13'0 0.4
2016-Aug-08 11:33N 48°45' W 126°13'0 0.5
2016-Aug-08 10:33N 48°45' W 126°12'0 0.4
2016-Aug-08 09:34N 48°45' W 126°12'0 0.3
2016-Aug-08 08:34N 48°44' W 126°11'0 0.1
2016-Aug-08 07:33N 48°44' W 126°11'0 0.3
2016-Aug-08 06:34N 48°44' W 126°12'0 0.3
2016-Aug-08 05:34N 48°44' W 126°12'4 4.2
2016-Aug-08 04:34N 48°45' W 126°18'8 8.2
2016-Aug-08 03:32N 48°49' W 126°29'26 8.7
2016-Aug-08 00:32N 49°09' W 126°54'20 1.8
2016-Aug-07 13:04N 49°28' W 127°06'4 7.5
2016-Aug-07 12:32N 49°26' W 127°01'8 8.3
2016-Aug-07 11:34N 49°22' W 126°50'8 8.1
2016-Aug-07 10:33N 49°18' W 126°39'8 7.9
2016-Aug-07 09:33N 49°14' W 126°29'8 8.1
2016-Aug-07 08:34N 49°10' W 126°18'8 8.3
2016-Aug-07 07:33N 49°06' W 126°07'8 8.2
2016-Aug-07 06:34N 49°03' W 125°56'17 8.6
2016-Aug-07 04:34N 48°55' W 125°32'1 1.4
2016-Aug-07 03:34N 48°56' W 125°32'  
2016-Aug-02 19:33N 48°56' W 125°32'0 0.3
2016-Aug-02 18:33N 48°56' W 125°32'2 2.5
2016-Aug-02 17:33N 48°56' W 125°36'6 6.1
2016-Aug-02 16:33N 48°59' W 125°44'7 6.5
2016-Aug-02 15:33N 49°02' W 125°52'6 6.4
2016-Aug-02 14:33N 49°06' W 126°00'6 6.2
2016-Aug-02 13:33N 49°09' W 126°08'7 6.7
2016-Aug-02 12:33N 49°13' W 126°17'7 6.8
2016-Aug-02 11:33N 49°16' W 126°26'7 6.8
2016-Aug-02 10:33N 49°20' W 126°35'7 6.8
2016-Aug-02 09:33N 49°23' W 126°44'7 6.6
2016-Aug-02 08:33N 49°26' W 126°52'8 0.4
2016-Aug-01 13:33N 49°29' W 127°04'8 8.4
2016-Aug-01 12:33N 49°25' W 126°53'8 7.9
2016-Aug-01 11:33N 49°21' W 126°42'8 8.1
2016-Aug-01 10:33N 49°17' W 126°32'8 8.2
2016-Aug-01 09:33N 49°13' W 126°21'8 8.0
2016-Aug-01 08:33N 49°09' W 126°10'8 7.9
2016-Aug-01 07:33N 49°05' W 125°60'16 8.1
2016-Aug-01 05:33N 48°57' W 125°38'4 3.9
2016-Aug-01 04:33N 48°56' W 125°32'0 0.0
2016-Aug-01 03:33N 48°56' W 125°32'0 0.0
2016-Aug-01 02:32N 48°56' W 125°32'0 0.0
2016-Aug-01 01:33N 48°56' W 125°32'0 0.0
2016-Aug-01 00:33N 48°56' W 125°32'0 0.0
2016-Jul-31 23:33N 48°56' W 125°32'0 0.0
2016-Jul-31 22:33N 48°56' W 125°32'0 0.0
2016-Jul-31 21:33N 48°56' W 125°32'0 0.0
2016-Jul-31 20:33N 48°56' W 125°32'0 0.0
2016-Jul-31 19:33N 48°56' W 125°32'0 0.0
2016-Jul-31 18:34N 48°56' W 125°32'0 0.0
2016-Jul-31 17:33N 48°56' W 125°32'0 0.0
2016-Jul-31 16:33N 48°56' W 125°32'0 0.0
2016-Jul-31 15:33N 48°56' W 125°32'0 0.0
2016-Jul-31 14:33N 48°56' W 125°32'0 0.0
2016-Jul-31 13:33N 48°56' W 125°32'0 0.0
2016-Jul-31 12:33N 48°56' W 125°32'0 0.0
2016-Jul-31 11:33N 48°56' W 125°32'0 0.0
2016-Jul-31 10:33N 48°56' W 125°32'0 0.0
2016-Jul-31 09:33N 48°56' W 125°32'0 0.0
2016-Jul-31 08:33N 48°56' W 125°32'  
Track history (hours):
 
Tides and Currents Weather Stations Pressure Air Temp Water Temp Dewpoint Dewpoint Depression Visibility Wind Speed Wind Dir Waves Ship Positions

Ocean King

Last reported at 2016-Aug-09 05:33 UTC. Time now 2016-Aug-26 01:30 UTC.
Position N 48°50' W 125°30'.
Warning: this ship's position is 16 days out of date.

Length 29 m; draft 4 m.

Type: Fishing. MMSI: 316003514.

Date/timePositionNaut miles runAvg speedWind from/ knotsBaromVisibWave heightAir tempDewpointWater temp
2016-Aug-09 05:33N 48°50' W 125°30'5 4.8
2016-Aug-09 04:33N 48°45' W 125°30'8 7.6
2016-Aug-09 03:34N 48°38' W 125°29'8 7.2
2016-Aug-09 02:23N 48°29' W 125°28'5 4.6
2016-Aug-09 01:20N 48°25' W 125°31'8 9.2
2016-Aug-09 00:25N 48°21' W 125°43'7 6.7
2016-Aug-08 23:19N 48°14' W 125°46'1 1.2
2016-Aug-08 22:31N 48°15' W 125°46'0 0.2
2016-Aug-08 20:33N 48°15' W 125°46'2 1.9
2016-Aug-08 19:30N 48°17' W 125°44'4 4.6
2016-Aug-08 18:32N 48°17' W 125°50'7 7.5
2016-Aug-08 17:33N 48°24' W 125°54'7 6.9
2016-Aug-08 16:33N 48°25' W 126°04'8 7.5
2016-Aug-08 15:33N 48°32' W 126°10'7 7.5
2016-Aug-08 14:33N 48°39' W 126°14'7 7.3
2016-Aug-08 13:34N 48°46' W 126°15'1 1.4
2016-Aug-08 12:34N 48°46' W 126°13'0 0.4
2016-Aug-08 11:33N 48°45' W 126°13'0 0.5
2016-Aug-08 10:33N 48°45' W 126°12'0 0.4
2016-Aug-08 09:34N 48°45' W 126°12'0 0.3
2016-Aug-08 08:34N 48°44' W 126°11'0 0.1
2016-Aug-08 07:33N 48°44' W 126°11'0 0.3
2016-Aug-08 06:34N 48°44' W 126°12'0 0.3
2016-Aug-08 05:34N 48°44' W 126°12'4 4.2
2016-Aug-08 04:34N 48°45' W 126°18'8 8.2
2016-Aug-08 03:32N 48°49' W 126°29'26 8.7
2016-Aug-08 00:32N 49°09' W 126°54'20 1.8
2016-Aug-07 13:04N 49°28' W 127°06'4 7.5
2016-Aug-07 12:32N 49°26' W 127°01'8 8.3
2016-Aug-07 11:34N 49°22' W 126°50'8 8.1
2016-Aug-07 10:33N 49°18' W 126°39'8 7.9
2016-Aug-07 09:33N 49°14' W 126°29'8 8.1
2016-Aug-07 08:34N 49°10' W 126°18'8 8.3
2016-Aug-07 07:33N 49°06' W 126°07'8 8.2
2016-Aug-07 06:34N 49°03' W 125°56'17 8.6
2016-Aug-07 04:34N 48°55' W 125°32'1 1.4
2016-Aug-07 03:34N 48°56' W 125°32'  
2016-Aug-02 19:33N 48°56' W 125°32'0 0.3
2016-Aug-02 18:33N 48°56' W 125°32'2 2.5
2016-Aug-02 17:33N 48°56' W 125°36'6 6.1
2016-Aug-02 16:33N 48°59' W 125°44'7 6.5
2016-Aug-02 15:33N 49°02' W 125°52'6 6.4
2016-Aug-02 14:33N 49°06' W 126°00'6 6.2
2016-Aug-02 13:33N 49°09' W 126°08'7 6.7
2016-Aug-02 12:33N 49°13' W 126°17'7 6.8
2016-Aug-02 11:33N 49°16' W 126°26'7 6.8
2016-Aug-02 10:33N 49°20' W 126°35'7 6.8
2016-Aug-02 09:33N 49°23' W 126°44'7 6.6
2016-Aug-02 08:33N 49°26' W 126°52'8 0.4
2016-Aug-01 13:33N 49°29' W 127°04'8 8.4
2016-Aug-01 12:33N 49°25' W 126°53'8 7.9
2016-Aug-01 11:33N 49°21' W 126°42'8 8.1
2016-Aug-01 10:33N 49°17' W 126°32'8 8.2
2016-Aug-01 09:33N 49°13' W 126°21'8 8.0
2016-Aug-01 08:33N 49°09' W 126°10'8 7.9
2016-Aug-01 07:33N 49°05' W 125°60'16 8.1
2016-Aug-01 05:33N 48°57' W 125°38'4 3.9
2016-Aug-01 04:33N 48°56' W 125°32'0 0.0
2016-Aug-01 03:33N 48°56' W 125°32'0 0.0
2016-Aug-01 02:32N 48°56' W 125°32'0 0.0
2016-Aug-01 01:33N 48°56' W 125°32'0 0.0
2016-Aug-01 00:33N 48°56' W 125°32'0 0.0
2016-Jul-31 23:33N 48°56' W 125°32'0 0.0
2016-Jul-31 22:33N 48°56' W 125°32'0 0.0
2016-Jul-31 21:33N 48°56' W 125°32'0 0.0
2016-Jul-31 20:33N 48°56' W 125°32'0 0.0
2016-Jul-31 19:33N 48°56' W 125°32'0 0.0
2016-Jul-31 18:34N 48°56' W 125°32'0 0.0
2016-Jul-31 17:33N 48°56' W 125°32'0 0.0
2016-Jul-31 16:33N 48°56' W 125°32'0 0.0
2016-Jul-31 15:33N 48°56' W 125°32'0 0.0
2016-Jul-31 14:33N 48°56' W 125°32'0 0.0
2016-Jul-31 13:33N 48°56' W 125°32'0 0.0
2016-Jul-31 12:33N 48°56' W 125°32'0 0.0
2016-Jul-31 11:33N 48°56' W 125°32'0 0.0
2016-Jul-31 10:33N 48°56' W 125°32'0 0.0
2016-Jul-31 09:33N 48°56' W 125°32'0 0.0
2016-Jul-31 08:33N 48°56' W 125°32'  

Dump ship's entire track history